sensor_id;sensor_type;location;lat;lon;timestamp;P1;durP1;ratioP1;P2;durP2;ratioP2
36839;SDS011;24406;51.640;9.566;2023-01-25T00:02:51;18.75;;;14.05;;
36839;SDS011;24406;51.640;9.566;2023-01-25T00:07:52;18.83;;;12.43;;
36839;SDS011;24406;51.640;9.566;2023-01-25T00:12:58;19.23;;;13.35;;
36839;SDS011;24406;51.640;9.566;2023-01-25T00:17:59;17.17;;;12.60;;
36839;SDS011;24406;51.640;9.566;2023-01-25T00:23:01;17.88;;;12.73;;
36839;SDS011;24406;51.640;9.566;2023-01-25T00:28:04;17.55;;;11.75;;
36839;SDS011;24406;51.640;9.566;2023-01-25T00:33:06;16.92;;;12.20;;
36839;SDS011;24406;51.640;9.566;2023-01-25T00:38:33;20.67;;;13.75;;
36839;SDS011;24406;51.640;9.566;2023-01-25T00:43:36;19.27;;;12.90;;
36839;SDS011;24406;51.640;9.566;2023-01-25T00:48:38;18.10;;;12.80;;
36839;SDS011;24406;51.640;9.566;2023-01-25T00:53:39;18.60;;;11.85;;
36839;SDS011;24406;51.640;9.566;2023-01-25T00:58:42;22.60;;;14.30;;
36839;SDS011;24406;51.640;9.566;2023-01-25T01:03:46;22.42;;;15.75;;
36839;SDS011;24406;51.640;9.566;2023-01-25T01:08:48;20.77;;;13.60;;
36839;SDS011;24406;51.640;9.566;2023-01-25T01:13:50;21.15;;;14.27;;
36839;SDS011;24406;51.640;9.566;2023-01-25T01:18:52;24.08;;;15.63;;
36839;SDS011;24406;51.640;9.566;2023-01-25T01:23:54;22.27;;;15.65;;
36839;SDS011;24406;51.640;9.566;2023-01-25T01:28:57;23.15;;;15.93;;
36839;SDS011;24406;51.640;9.566;2023-01-25T01:33:59;23.27;;;16.20;;
36839;SDS011;24406;51.640;9.566;2023-01-25T01:39:01;22.88;;;16.70;;
36839;SDS011;24406;51.640;9.566;2023-01-25T01:44:04;23.83;;;15.82;;
36839;SDS011;24406;51.640;9.566;2023-01-25T01:49:08;22.58;;;15.18;;
36839;SDS011;24406;51.640;9.566;2023-01-25T01:54:13;24.55;;;15.55;;
36839;SDS011;24406;51.640;9.566;2023-01-25T01:59:18;25.08;;;16.23;;
36839;SDS011;24406;51.640;9.566;2023-01-25T02:04:20;25.67;;;15.80;;
36839;SDS011;24406;51.640;9.566;2023-01-25T02:09:24;27.10;;;18.15;;
36839;SDS011;24406;51.640;9.566;2023-01-25T02:14:28;25.42;;;16.25;;
36839;SDS011;24406;51.640;9.566;2023-01-25T02:19:33;23.08;;;15.13;;
36839;SDS011;24406;51.640;9.566;2023-01-25T02:24:40;23.58;;;14.75;;
36839;SDS011;24406;51.640;9.566;2023-01-25T02:29:46;26.42;;;14.50;;
36839;SDS011;24406;51.640;9.566;2023-01-25T02:34:48;24.08;;;15.13;;
36839;SDS011;24406;51.640;9.566;2023-01-25T02:39:50;27.45;;;16.80;;
36839;SDS011;24406;51.640;9.566;2023-01-25T02:44:53;25.38;;;15.73;;
36839;SDS011;24406;51.640;9.566;2023-01-25T02:49:54;25.60;;;16.55;;
36839;SDS011;24406;51.640;9.566;2023-01-25T02:54:56;26.67;;;18.33;;
36839;SDS011;24406;51.640;9.566;2023-01-25T02:59:59;23.48;;;15.15;;
36839;SDS011;24406;51.640;9.566;2023-01-25T03:05:02;24.02;;;14.68;;
36839;SDS011;24406;51.640;9.566;2023-01-25T03:10:04;23.88;;;13.75;;
36839;SDS011;24406;51.640;9.566;2023-01-25T03:15:10;23.20;;;14.93;;
36839;SDS011;24406;51.640;9.566;2023-01-25T03:20:12;28.20;;;15.90;;
36839;SDS011;24406;51.640;9.566;2023-01-25T03:25:13;24.77;;;14.98;;
36839;SDS011;24406;51.640;9.566;2023-01-25T03:30:27;23.50;;;15.60;;
36839;SDS011;24406;51.640;9.566;2023-01-25T03:35:29;23.58;;;13.30;;
36839;SDS011;24406;51.640;9.566;2023-01-25T03:40:31;23.23;;;14.43;;
36839;SDS011;24406;51.640;9.566;2023-01-25T03:45:33;24.40;;;14.27;;
36839;SDS011;24406;51.640;9.566;2023-01-25T03:50:35;24.80;;;13.63;;
36839;SDS011;24406;51.640;9.566;2023-01-25T03:55:37;23.30;;;13.63;;
36839;SDS011;24406;51.640;9.566;2023-01-25T04:00:40;23.92;;;13.00;;
36839;SDS011;24406;51.640;9.566;2023-01-25T04:05:42;27.60;;;16.00;;
36839;SDS011;24406;51.640;9.566;2023-01-25T04:10:48;23.13;;;13.85;;
36839;SDS011;24406;51.640;9.566;2023-01-25T04:15:52;25.50;;;16.75;;
36839;SDS011;24406;51.640;9.566;2023-01-25T04:21:20;19.92;;;12.18;;
36839;SDS011;24406;51.640;9.566;2023-01-25T04:26:22;23.60;;;15.02;;
36839;SDS011;24406;51.640;9.566;2023-01-25T04:31:30;25.20;;;13.40;;
36839;SDS011;24406;51.640;9.566;2023-01-25T04:36:32;24.80;;;14.25;;
36839;SDS011;24406;51.640;9.566;2023-01-25T04:41:33;22.60;;;13.00;;
36839;SDS011;24406;51.640;9.566;2023-01-25T04:46:36;19.23;;;12.55;;
36839;SDS011;24406;51.640;9.566;2023-01-25T04:51:38;21.15;;;12.95;;
36839;SDS011;24406;51.640;9.566;2023-01-25T04:56:39;21.58;;;12.07;;
36839;SDS011;24406;51.640;9.566;2023-01-25T05:01:42;23.40;;;13.65;;
36839;SDS011;24406;51.640;9.566;2023-01-25T05:06:44;23.90;;;13.93;;
36839;SDS011;24406;51.640;9.566;2023-01-25T05:11:46;25.48;;;14.60;;
36839;SDS011;24406;51.640;9.566;2023-01-25T05:17:09;24.25;;;14.10;;
36839;SDS011;24406;51.640;9.566;2023-01-25T05:22:11;21.88;;;12.32;;
36839;SDS011;24406;51.640;9.566;2023-01-25T05:27:21;21.48;;;11.60;;
36839;SDS011;24406;51.640;9.566;2023-01-25T05:32:30;21.95;;;12.80;;
36839;SDS011;24406;51.640;9.566;2023-01-25T05:37:32;20.23;;;11.57;;
36839;SDS011;24406;51.640;9.566;2023-01-25T05:42:40;23.88;;;12.85;;
36839;SDS011;24406;51.640;9.566;2023-01-25T05:47:52;27.02;;;14.20;;
36839;SDS011;24406;51.640;9.566;2023-01-25T05:52:54;21.42;;;12.38;;
36839;SDS011;24406;51.640;9.566;2023-01-25T05:57:57;19.77;;;11.13;;
36839;SDS011;24406;51.640;9.566;2023-01-25T06:03:00;22.95;;;12.38;;
36839;SDS011;24406;51.640;9.566;2023-01-25T06:08:04;17.70;;;11.20;;
36839;SDS011;24406;51.640;9.566;2023-01-25T06:13:15;15.55;;;9.60;;
36839;SDS011;24406;51.640;9.566;2023-01-25T06:18:18;16.73;;;10.35;;
36839;SDS011;24406;51.640;9.566;2023-01-25T06:23:38;19.88;;;11.88;;
36839;SDS011;24406;51.640;9.566;2023-01-25T06:28:40;18.58;;;11.75;;
36839;SDS011;24406;51.640;9.566;2023-01-25T06:33:45;15.18;;;9.80;;
36839;SDS011;24406;51.640;9.566;2023-01-25T06:38:49;16.70;;;10.80;;
36839;SDS011;24406;51.640;9.566;2023-01-25T06:43:51;14.45;;;9.02;;
36839;SDS011;24406;51.640;9.566;2023-01-25T06:48:55;16.67;;;10.43;;
36839;SDS011;24406;51.640;9.566;2023-01-25T06:54:00;18.02;;;10.60;;
36839;SDS011;24406;51.640;9.566;2023-01-25T06:59:02;17.30;;;11.45;;
36839;SDS011;24406;51.640;9.566;2023-01-25T07:04:05;16.20;;;10.20;;
36839;SDS011;24406;51.640;9.566;2023-01-25T07:09:07;16.02;;;10.50;;
36839;SDS011;24406;51.640;9.566;2023-01-25T07:14:09;16.45;;;10.55;;
36839;SDS011;24406;51.640;9.566;2023-01-25T07:19:12;16.65;;;10.00;;
36839;SDS011;24406;51.640;9.566;2023-01-25T07:24:14;16.55;;;10.88;;
36839;SDS011;24406;51.640;9.566;2023-01-25T07:29:17;15.68;;;9.02;;
36839;SDS011;24406;51.640;9.566;2023-01-25T07:34:20;16.38;;;9.48;;
36839;SDS011;24406;51.640;9.566;2023-01-25T07:39:21;15.23;;;10.40;;
36839;SDS011;24406;51.640;9.566;2023-01-25T07:44:23;17.83;;;10.93;;
36839;SDS011;24406;51.640;9.566;2023-01-25T07:49:31;16.15;;;10.68;;
36839;SDS011;24406;51.640;9.566;2023-01-25T07:54:32;18.85;;;12.43;;
36839;SDS011;24406;51.640;9.566;2023-01-25T07:59:34;14.18;;;9.90;;
36839;SDS011;24406;51.640;9.566;2023-01-25T08:04:36;13.57;;;9.50;;
36839;SDS011;24406;51.640;9.566;2023-01-25T08:09:39;17.50;;;11.38;;
36839;SDS011;24406;51.640;9.566;2023-01-25T08:14:41;15.57;;;11.48;;
36839;SDS011;24406;51.640;9.566;2023-01-25T08:19:43;14.43;;;9.55;;
36839;SDS011;24406;51.640;9.566;2023-01-25T08:24:45;13.32;;;9.35;;
36839;SDS011;24406;51.640;9.566;2023-01-25T08:29:46;14.18;;;9.85;;
36839;SDS011;24406;51.640;9.566;2023-01-25T08:34:50;17.70;;;11.27;;
36839;SDS011;24406;51.640;9.566;2023-01-25T08:39:52;13.75;;;9.05;;
36839;SDS011;24406;51.640;9.566;2023-01-25T08:44:53;16.40;;;10.57;;
36839;SDS011;24406;51.640;9.566;2023-01-25T08:49:56;14.63;;;9.40;;
36839;SDS011;24406;51.640;9.566;2023-01-25T08:54:58;15.00;;;10.27;;
36839;SDS011;24406;51.640;9.566;2023-01-25T09:00:00;15.88;;;10.40;;
36839;SDS011;24406;51.640;9.566;2023-01-25T09:05:03;18.52;;;10.45;;
36839;SDS011;24406;51.640;9.566;2023-01-25T09:10:05;14.75;;;9.55;;
36839;SDS011;24406;51.640;9.566;2023-01-25T09:15:07;16.70;;;10.65;;
36839;SDS011;24406;51.640;9.566;2023-01-25T09:20:11;17.30;;;10.13;;
36839;SDS011;24406;51.640;9.566;2023-01-25T09:25:14;14.85;;;10.35;;
36839;SDS011;24406;51.640;9.566;2023-01-25T09:30:16;13.68;;;9.00;;
36839;SDS011;24406;51.640;9.566;2023-01-25T09:35:22;16.40;;;10.15;;
36839;SDS011;24406;51.640;9.566;2023-01-25T09:40:23;17.05;;;10.90;;
36839;SDS011;24406;51.640;9.566;2023-01-25T09:45:29;16.92;;;11.27;;
36839;SDS011;24406;51.640;9.566;2023-01-25T09:50:34;15.90;;;10.75;;
36839;SDS011;24406;51.640;9.566;2023-01-25T09:55:37;13.25;;;9.25;;
36839;SDS011;24406;51.640;9.566;2023-01-25T10:00:40;20.85;;;12.95;;
36839;SDS011;24406;51.640;9.566;2023-01-25T10:05:46;19.95;;;12.05;;
36839;SDS011;24406;51.640;9.566;2023-01-25T10:10:49;16.13;;;10.05;;
36839;SDS011;24406;51.640;9.566;2023-01-25T10:15:54;14.90;;;9.18;;
36839;SDS011;24406;51.640;9.566;2023-01-25T10:21:02;15.38;;;9.85;;
36839;SDS011;24406;51.640;9.566;2023-01-25T10:26:07;29.00;;;13.90;;
36839;SDS011;24406;51.640;9.566;2023-01-25T10:31:15;13.55;;;8.60;;
36839;SDS011;24406;51.640;9.566;2023-01-25T10:36:21;19.23;;;10.70;;
36839;SDS011;24406;51.640;9.566;2023-01-25T10:41:26;19.23;;;11.37;;
36839;SDS011;24406;51.640;9.566;2023-01-25T10:46:31;15.32;;;9.55;;
36839;SDS011;24406;51.640;9.566;2023-01-25T10:51:34;16.95;;;10.63;;
36839;SDS011;24406;51.640;9.566;2023-01-25T10:56:36;18.17;;;11.75;;
36839;SDS011;24406;51.640;9.566;2023-01-25T11:01:39;16.00;;;10.80;;
36839;SDS011;24406;51.640;9.566;2023-01-25T11:06:46;19.48;;;12.18;;
36839;SDS011;24406;51.640;9.566;2023-01-25T11:11:52;17.70;;;12.68;;
36839;SDS011;24406;51.640;9.566;2023-01-25T11:16:55;15.60;;;10.77;;
36839;SDS011;24406;51.640;9.566;2023-01-25T11:21:59;17.15;;;10.00;;
36839;SDS011;24406;51.640;9.566;2023-01-25T11:27:12;18.60;;;12.30;;
36839;SDS011;24406;51.640;9.566;2023-01-25T11:32:18;12.77;;;9.25;;
36839;SDS011;24406;51.640;9.566;2023-01-25T11:37:27;15.15;;;9.80;;
36839;SDS011;24406;51.640;9.566;2023-01-25T11:42:37;14.55;;;9.30;;
36839;SDS011;24406;51.640;9.566;2023-01-25T11:47:50;12.88;;;7.82;;
36839;SDS011;24406;51.640;9.566;2023-01-25T11:52:59;12.82;;;9.00;;
36839;SDS011;24406;51.640;9.566;2023-01-25T11:58:17;12.82;;;8.20;;
36839;SDS011;24406;51.640;9.566;2023-01-25T12:03:35;15.52;;;9.80;;
36839;SDS011;24406;51.640;9.566;2023-01-25T12:08:55;18.42;;;10.68;;
36839;SDS011;24406;51.640;9.566;2023-01-25T12:14:05;16.55;;;10.15;;
36839;SDS011;24406;51.640;9.566;2023-01-25T12:19:22;13.60;;;8.30;;
36839;SDS011;24406;51.640;9.566;2023-01-25T12:24:39;15.50;;;10.70;;
36839;SDS011;24406;51.640;9.566;2023-01-25T12:29:45;18.98;;;10.13;;
36839;SDS011;24406;51.640;9.566;2023-01-25T12:34:51;19.35;;;11.60;;
36839;SDS011;24406;51.640;9.566;2023-01-25T12:40:03;17.55;;;10.70;;
36839;SDS011;24406;51.640;9.566;2023-01-25T12:45:10;16.73;;;10.15;;
36839;SDS011;24406;51.640;9.566;2023-01-25T12:50:16;17.65;;;10.93;;
36839;SDS011;24406;51.640;9.566;2023-01-25T12:55:21;22.73;;;14.32;;
36839;SDS011;24406;51.640;9.566;2023-01-25T13:00:25;22.40;;;12.02;;
36839;SDS011;24406;51.640;9.566;2023-01-25T13:05:33;18.63;;;10.30;;
36839;SDS011;24406;51.640;9.566;2023-01-25T13:10:39;25.27;;;15.15;;
36839;SDS011;24406;51.640;9.566;2023-01-25T13:15:45;20.05;;;12.30;;
36839;SDS011;24406;51.640;9.566;2023-01-25T13:20:47;19.75;;;11.52;;
36839;SDS011;24406;51.640;9.566;2023-01-25T13:25:50;21.63;;;11.73;;
36839;SDS011;24406;51.640;9.566;2023-01-25T13:30:52;21.55;;;12.43;;
36839;SDS011;24406;51.640;9.566;2023-01-25T13:35:54;23.23;;;13.27;;
36839;SDS011;24406;51.640;9.566;2023-01-25T13:41:07;26.08;;;14.45;;
36839;SDS011;24406;51.640;9.566;2023-01-25T13:46:20;26.38;;;13.65;;
36839;SDS011;24406;51.640;9.566;2023-01-25T13:51:23;26.60;;;14.40;;
36839;SDS011;24406;51.640;9.566;2023-01-25T13:56:29;27.92;;;14.05;;
36839;SDS011;24406;51.640;9.566;2023-01-25T14:01:32;28.05;;;14.73;;
36839;SDS011;24406;51.640;9.566;2023-01-25T14:06:36;33.95;;;17.80;;
36839;SDS011;24406;51.640;9.566;2023-01-25T14:11:43;31.05;;;15.32;;
36839;SDS011;24406;51.640;9.566;2023-01-25T14:16:59;29.73;;;16.33;;
36839;SDS011;24406;51.640;9.566;2023-01-25T14:22:11;31.02;;;16.05;;
36839;SDS011;24406;51.640;9.566;2023-01-25T14:27:21;32.33;;;17.00;;
36839;SDS011;24406;51.640;9.566;2023-01-25T14:32:23;34.13;;;17.17;;
36839;SDS011;24406;51.640;9.566;2023-01-25T14:37:26;41.67;;;20.00;;
36839;SDS011;24406;51.640;9.566;2023-01-25T14:42:29;42.55;;;20.15;;
36839;SDS011;24406;51.640;9.566;2023-01-25T14:47:31;42.95;;;17.25;;
36839;SDS011;24406;51.640;9.566;2023-01-25T14:52:33;39.53;;;17.75;;
36839;SDS011;24406;51.640;9.566;2023-01-25T14:57:36;66.85;;;34.08;;
36839;SDS011;24406;51.640;9.566;2023-01-25T15:02:39;84.20;;;38.13;;
36839;SDS011;24406;51.640;9.566;2023-01-25T15:07:45;38.47;;;16.52;;
36839;SDS011;24406;51.640;9.566;2023-01-25T15:13:01;42.33;;;18.95;;
36839;SDS011;24406;51.640;9.566;2023-01-25T15:18:03;41.33;;;19.45;;
36839;SDS011;24406;51.640;9.566;2023-01-25T15:23:11;33.85;;;14.93;;
36839;SDS011;24406;51.640;9.566;2023-01-25T15:28:23;30.48;;;16.00;;
36839;SDS011;24406;51.640;9.566;2023-01-25T15:33:27;31.60;;;15.48;;
36839;SDS011;24406;51.640;9.566;2023-01-25T15:38:31;31.95;;;14.55;;
36839;SDS011;24406;51.640;9.566;2023-01-25T15:43:34;32.60;;;15.93;;
36839;SDS011;24406;51.640;9.566;2023-01-25T15:48:36;33.45;;;15.95;;
36839;SDS011;24406;51.640;9.566;2023-01-25T15:53:42;34.17;;;16.33;;
36839;SDS011;24406;51.640;9.566;2023-01-25T15:58:46;32.53;;;16.90;;
36839;SDS011;24406;51.640;9.566;2023-01-25T16:03:48;41.15;;;18.85;;
36839;SDS011;24406;51.640;9.566;2023-01-25T16:08:50;33.30;;;15.52;;
36839;SDS011;24406;51.640;9.566;2023-01-25T16:13:53;38.13;;;16.60;;
36839;SDS011;24406;51.640;9.566;2023-01-25T16:18:55;33.35;;;16.98;;
36839;SDS011;24406;51.640;9.566;2023-01-25T16:23:57;37.13;;;17.00;;
36839;SDS011;24406;51.640;9.566;2023-01-25T16:29:00;30.50;;;15.90;;
36839;SDS011;24406;51.640;9.566;2023-01-25T16:34:02;28.08;;;15.18;;
36839;SDS011;24406;51.640;9.566;2023-01-25T16:39:05;31.08;;;16.27;;
36839;SDS011;24406;51.640;9.566;2023-01-25T16:44:10;32.60;;;15.88;;
36839;SDS011;24406;51.640;9.566;2023-01-25T16:49:13;30.33;;;16.20;;
36839;SDS011;24406;51.640;9.566;2023-01-25T16:54:16;35.38;;;17.60;;
36839;SDS011;24406;51.640;9.566;2023-01-25T16:59:21;34.78;;;17.17;;
36839;SDS011;24406;51.640;9.566;2023-01-25T17:04:23;35.10;;;17.27;;
36839;SDS011;24406;51.640;9.566;2023-01-25T17:09:24;40.60;;;18.08;;
36839;SDS011;24406;51.640;9.566;2023-01-25T17:14:27;32.03;;;16.35;;
36839;SDS011;24406;51.640;9.566;2023-01-25T17:19:29;32.45;;;16.38;;
36839;SDS011;24406;51.640;9.566;2023-01-25T17:24:32;25.55;;;13.40;;
36839;SDS011;24406;51.640;9.566;2023-01-25T17:29:37;24.30;;;13.68;;
36839;SDS011;24406;51.640;9.566;2023-01-25T17:34:40;25.15;;;13.45;;
36839;SDS011;24406;51.640;9.566;2023-01-25T17:39:41;24.35;;;13.02;;
36839;SDS011;24406;51.640;9.566;2023-01-25T17:44:44;20.60;;;12.93;;
36839;SDS011;24406;51.640;9.566;2023-01-25T17:49:45;31.50;;;17.13;;
36839;SDS011;24406;51.640;9.566;2023-01-25T17:54:48;29.63;;;14.18;;
36839;SDS011;24406;51.640;9.566;2023-01-25T17:59:51;22.50;;;12.70;;
36839;SDS011;24406;51.640;9.566;2023-01-25T18:04:53;25.27;;;14.43;;
36839;SDS011;24406;51.640;9.566;2023-01-25T18:09:56;24.38;;;14.50;;
36839;SDS011;24406;51.640;9.566;2023-01-25T18:14:59;25.10;;;13.05;;
36839;SDS011;24406;51.640;9.566;2023-01-25T18:20:01;28.35;;;16.10;;
36839;SDS011;24406;51.640;9.566;2023-01-25T18:25:06;25.92;;;15.57;;
36839;SDS011;24406;51.640;9.566;2023-01-25T18:30:20;28.95;;;16.90;;
36839;SDS011;24406;51.640;9.566;2023-01-25T18:35:29;31.50;;;17.27;;
36839;SDS011;24406;51.640;9.566;2023-01-25T18:40:31;31.35;;;19.27;;
36839;SDS011;24406;51.640;9.566;2023-01-25T18:45:34;26.67;;;14.95;;
36839;SDS011;24406;51.640;9.566;2023-01-25T18:50:37;23.25;;;13.93;;
36839;SDS011;24406;51.640;9.566;2023-01-25T18:55:39;21.80;;;13.82;;
36839;SDS011;24406;51.640;9.566;2023-01-25T19:00:42;20.67;;;12.45;;
36839;SDS011;24406;51.640;9.566;2023-01-25T19:05:49;21.27;;;12.07;;
36839;SDS011;24406;51.640;9.566;2023-01-25T19:10:56;36.88;;;22.52;;
36839;SDS011;24406;51.640;9.566;2023-01-25T19:16:00;22.60;;;13.40;;
36839;SDS011;24406;51.640;9.566;2023-01-25T19:21:05;27.67;;;16.60;;
36839;SDS011;24406;51.640;9.566;2023-01-25T19:26:09;25.98;;;13.35;;
36839;SDS011;24406;51.640;9.566;2023-01-25T19:31:13;25.52;;;14.40;;
36839;SDS011;24406;51.640;9.566;2023-01-25T19:36:16;31.48;;;16.95;;
36839;SDS011;24406;51.640;9.566;2023-01-25T19:41:18;26.70;;;14.13;;
36839;SDS011;24406;51.640;9.566;2023-01-25T19:46:23;26.48;;;14.20;;
36839;SDS011;24406;51.640;9.566;2023-01-25T19:51:26;22.52;;;13.50;;
36839;SDS011;24406;51.640;9.566;2023-01-25T19:56:29;26.17;;;13.30;;
36839;SDS011;24406;51.640;9.566;2023-01-25T20:01:33;23.35;;;12.68;;
36839;SDS011;24406;51.640;9.566;2023-01-25T20:06:35;21.55;;;11.30;;
36839;SDS011;24406;51.640;9.566;2023-01-25T20:11:37;20.73;;;11.98;;
36839;SDS011;24406;51.640;9.566;2023-01-25T20:16:40;22.67;;;12.50;;
36839;SDS011;24406;51.640;9.566;2023-01-25T20:21:41;24.83;;;14.15;;
36839;SDS011;24406;51.640;9.566;2023-01-25T20:26:43;17.45;;;10.93;;
36839;SDS011;24406;51.640;9.566;2023-01-25T20:31:46;20.42;;;10.68;;
36839;SDS011;24406;51.640;9.566;2023-01-25T20:36:48;20.90;;;11.23;;
36839;SDS011;24406;51.640;9.566;2023-01-25T20:41:49;18.77;;;10.60;;
36839;SDS011;24406;51.640;9.566;2023-01-25T20:46:53;21.10;;;12.27;;
36839;SDS011;24406;51.640;9.566;2023-01-25T20:51:55;20.92;;;11.02;;
36839;SDS011;24406;51.640;9.566;2023-01-25T20:56:56;20.92;;;10.63;;
36839;SDS011;24406;51.640;9.566;2023-01-25T21:01:59;21.08;;;12.75;;
36839;SDS011;24406;51.640;9.566;2023-01-25T21:07:00;22.52;;;12.75;;
36839;SDS011;24406;51.640;9.566;2023-01-25T21:12:02;21.10;;;12.73;;
36839;SDS011;24406;51.640;9.566;2023-01-25T21:17:05;18.55;;;10.48;;
36839;SDS011;24406;51.640;9.566;2023-01-25T21:22:07;20.23;;;10.77;;
36839;SDS011;24406;51.640;9.566;2023-01-25T21:27:08;17.65;;;11.15;;
36839;SDS011;24406;51.640;9.566;2023-01-25T21:32:11;21.92;;;13.38;;
36839;SDS011;24406;51.640;9.566;2023-01-25T21:37:13;23.95;;;14.43;;
36839;SDS011;24406;51.640;9.566;2023-01-25T21:42:15;25.98;;;13.52;;
36839;SDS011;24406;51.640;9.566;2023-01-25T21:47:17;22.27;;;12.20;;
36839;SDS011;24406;51.640;9.566;2023-01-25T21:52:19;22.55;;;12.45;;
36839;SDS011;24406;51.640;9.566;2023-01-25T21:57:21;19.00;;;11.35;;
36839;SDS011;24406;51.640;9.566;2023-01-25T22:02:24;27.63;;;14.02;;
36839;SDS011;24406;51.640;9.566;2023-01-25T22:07:26;20.92;;;12.40;;
36839;SDS011;24406;51.640;9.566;2023-01-25T22:12:27;24.58;;;13.20;;
36839;SDS011;24406;51.640;9.566;2023-01-25T22:17:30;26.42;;;14.13;;
36839;SDS011;24406;51.640;9.566;2023-01-25T22:22:32;25.55;;;14.45;;
36839;SDS011;24406;51.640;9.566;2023-01-25T22:27:39;29.45;;;16.20;;
36839;SDS011;24406;51.640;9.566;2023-01-25T22:32:46;31.75;;;16.08;;
36839;SDS011;24406;51.640;9.566;2023-01-25T22:37:48;28.25;;;15.60;;
36839;SDS011;24406;51.640;9.566;2023-01-25T22:42:49;26.90;;;13.95;;
36839;SDS011;24406;51.640;9.566;2023-01-25T22:47:52;24.98;;;13.73;;
36839;SDS011;24406;51.640;9.566;2023-01-25T22:52:54;23.20;;;12.73;;
36839;SDS011;24406;51.640;9.566;2023-01-25T22:57:56;22.42;;;12.27;;
36839;SDS011;24406;51.640;9.566;2023-01-25T23:02:59;22.80;;;12.95;;
36839;SDS011;24406;51.640;9.566;2023-01-25T23:08:01;20.90;;;12.35;;
36839;SDS011;24406;51.640;9.566;2023-01-25T23:13:02;23.95;;;13.32;;
36839;SDS011;24406;51.640;9.566;2023-01-25T23:18:05;20.65;;;12.05;;
36839;SDS011;24406;51.640;9.566;2023-01-25T23:23:24;25.05;;;13.23;;
36839;SDS011;24406;51.640;9.566;2023-01-25T23:28:27;24.20;;;12.18;;
36839;SDS011;24406;51.640;9.566;2023-01-25T23:33:30;27.50;;;13.48;;
36839;SDS011;24406;51.640;9.566;2023-01-25T23:38:31;23.05;;;12.23;;
36839;SDS011;24406;51.640;9.566;2023-01-25T23:43:33;27.15;;;13.32;;
36839;SDS011;24406;51.640;9.566;2023-01-25T23:48:36;26.45;;;13.27;;
36839;SDS011;24406;51.640;9.566;2023-01-25T23:53:38;26.38;;;14.43;;
36839;SDS011;24406;51.640;9.566;2023-01-25T23:58:39;31.33;;;14.40;;
